CCA1226 VHHH-ZJHK
Flight info
| Callsign | CCA1226 |
|---|---|
| Flight time | 0h 56m |
| Altitude | 36000 |
| Route | PECAN V10 SIKOU A202 ISBIG |
| Aircraft | A359/H-SDE2E3GHIJ3J4J5LM1ORWXY/LB1D1 |
Departure
| Time | 2026-04-21 13:35 |
|---|---|
| Airport | Hong Kong International Airport (VHHH) |
Arrival
| Time | 2026-04-21 14:32 |
|---|---|
| Airport | Haikou Meilan International Airport (ZJHK) |
| Time | Latitude | Longitude | Altitude | Speed | Heading |
|---|---|---|---|---|---|
| 2026-04-21 13:04 | 22.31276 | 113.92909 | 38 ft | 0 kts | 341° |
| 2026-04-21 13:21 | 22.31266 | 113.92913 | 37 ft | 4 kts | 341° |
| 2026-04-21 13:22 | 22.31241 | 113.92922 | 36 ft | 4 kts | 341° |
| 2026-04-21 13:22 | 22.31220 | 113.92930 | 37 ft | 3 kts | 340° |
| 2026-04-21 13:22 | 22.31199 | 113.92944 | 37 ft | 4 kts | 294° |
| 2026-04-21 13:22 | 22.31197 | 113.92968 | 37 ft | 3 kts | 251° |
| 2026-04-21 13:23 | 22.31206 | 113.92995 | 35 ft | 4 kts | 251° |
| 2026-04-21 13:23 | 22.31209 | 113.93003 | 35 ft | 0 kts | 251° |
| 2026-04-21 13:28 | 22.31189 | 113.92943 | 38 ft | 11 kts | 250° |
| 2026-04-21 13:28 | 22.31138 | 113.92878 | 38 ft | 12 kts | 210° |
| 2026-04-21 13:29 | 22.31059 | 113.92834 | 38 ft | 16 kts | 207° |
| 2026-04-21 13:29 | 22.30946 | 113.92773 | 38 ft | 19 kts | 205° |
| 2026-04-21 13:29 | 22.30836 | 113.92692 | 38 ft | 19 kts | 239° |
| 2026-04-21 13:29 | 22.30786 | 113.92561 | 38 ft | 20 kts | 250° |
| 2026-04-21 13:30 | 22.30738 | 113.92415 | 38 ft | 22 kts | 250° |
| 2026-04-21 13:30 | 22.30686 | 113.92254 | 38 ft | 24 kts | 250° |
| 2026-04-21 13:30 | 22.30634 | 113.92081 | 38 ft | 25 kts | 250° |
| 2026-04-21 13:30 | 22.30574 | 113.91898 | 38 ft | 27 kts | 251° |
| 2026-04-21 13:31 | 22.30511 | 113.91703 | 38 ft | 28 kts | 251° |
| 2026-04-21 13:31 | 22.30444 | 113.91498 | 38 ft | 30 kts | 251° |
| 2026-04-21 13:31 | 22.30375 | 113.91283 | 38 ft | 31 kts | 251° |
| 2026-04-21 13:31 | 22.30303 | 113.91061 | 38 ft | 32 kts | 251° |
| 2026-04-21 13:32 | 22.30227 | 113.90825 | 38 ft | 33 kts | 251° |
| 2026-04-21 13:32 | 22.30150 | 113.90584 | 38 ft | 35 kts | 251° |
| 2026-04-21 13:32 | 22.30071 | 113.90340 | 38 ft | 35 kts | 251° |
| 2026-04-21 13:32 | 22.30026 | 113.90200 | 38 ft | 13 kts | 251° |
| 2026-04-21 13:33 | 22.29994 | 113.90100 | 38 ft | 15 kts | 251° |
| 2026-04-21 13:33 | 22.29957 | 113.89984 | 38 ft | 18 kts | 251° |
| 2026-04-21 13:33 | 22.29914 | 113.89851 | 38 ft | 20 kts | 251° |
| 2026-04-21 13:33 | 22.29828 | 113.89751 | 38 ft | 19 kts | 182° |
| 2026-04-21 13:34 | 22.29697 | 113.89784 | 37 ft | 21 kts | 154° |
| 2026-04-21 13:34 | 22.29653 | 113.89909 | 36 ft | 19 kts | 77° |
| 2026-04-21 13:34 | 22.29681 | 113.89996 | 36 ft | 0 kts | 70° |
| 2026-04-21 13:35 | 22.29771 | 113.90271 | 37 ft | 79 kts | 71° |
| 2026-04-21 13:35 | 22.30029 | 113.91077 | 38 ft | 145 kts | 70° |
| 2026-04-21 13:35 | 22.30444 | 113.92222 | 400 ft | 172 kts | 70° |
| 2026-04-21 13:35 | 22.30970 | 113.93433 | 1112 ft | 182 kts | 67° |
| 2026-04-21 13:36 | 22.31430 | 113.94681 | 1731 ft | 181 kts | 77° |
| 2026-04-21 13:36 | 22.31791 | 113.96050 | 1996 ft | 199 kts | 78° |
| 2026-04-21 13:36 | 22.32194 | 113.97552 | 2271 ft | 216 kts | 77° |
| 2026-04-21 13:36 | 22.32416 | 113.99169 | 2644 ft | 221 kts | 97° |
| 2026-04-21 13:37 | 22.31969 | 114.00783 | 2843 ft | 233 kts | 127° |
| 2026-04-21 13:37 | 22.30665 | 114.01832 | 3175 ft | 242 kts | 165° |
| 2026-04-21 13:37 | 22.28996 | 114.02034 | 3818 ft | 244 kts | 182° |
| 2026-04-21 13:37 | 22.27317 | 114.01815 | 4537 ft | 242 kts | 191° |
| 2026-04-21 13:38 | 22.25664 | 114.01411 | 5121 ft | 247 kts | 194° |
| 2026-04-21 13:38 | 22.23976 | 114.00945 | 5620 ft | 254 kts | 194° |
| 2026-04-21 13:38 | 22.22234 | 114.00485 | 6132 ft | 261 kts | 194° |
| 2026-04-21 13:38 | 22.20447 | 114.00059 | 6719 ft | 264 kts | 193° |
| 2026-04-21 13:39 | 22.18640 | 113.99667 | 7282 ft | 267 kts | 192° |
| 2026-04-21 13:39 | 22.16806 | 113.99296 | 7830 ft | 270 kts | 192° |
| 2026-04-21 13:39 | 22.14942 | 113.98935 | 8397 ft | 273 kts | 192° |
| 2026-04-21 13:39 | 22.13088 | 113.98583 | 8951 ft | 277 kts | 192° |
| 2026-04-21 13:40 | 22.11176 | 113.98220 | 9520 ft | 280 kts | 192° |
| 2026-04-21 13:40 | 22.09246 | 113.97853 | 10055 ft | 284 kts | 193° |
| 2026-04-21 13:40 | 22.07252 | 113.97470 | 10327 ft | 297 kts | 193° |
| 2026-04-21 13:40 | 22.05182 | 113.97069 | 10550 ft | 311 kts | 193° |
| 2026-04-21 13:41 | 22.03002 | 113.96647 | 10781 ft | 323 kts | 193° |
| 2026-04-21 13:41 | 22.00747 | 113.96211 | 10999 ft | 335 kts | 193° |
| 2026-04-21 13:41 | 21.98410 | 113.95760 | 11199 ft | 346 kts | 193° |
| 2026-04-21 13:41 | 21.96013 | 113.95299 | 11485 ft | 354 kts | 193° |
| 2026-04-21 13:42 | 21.93579 | 113.94833 | 11858 ft | 357 kts | 193° |
| 2026-04-21 13:42 | 21.91124 | 113.94363 | 12278 ft | 359 kts | 193° |
| 2026-04-21 13:42 | 21.88649 | 113.93889 | 12666 ft | 362 kts | 193° |
| 2026-04-21 13:42 | 21.86158 | 113.93411 | 13051 ft | 365 kts | 193° |
| 2026-04-21 13:43 | 21.83643 | 113.92929 | 13445 ft | 368 kts | 193° |
| 2026-04-21 13:43 | 21.81116 | 113.92444 | 13831 ft | 370 kts | 193° |
| 2026-04-21 13:43 | 21.78575 | 113.91957 | 14158 ft | 373 kts | 193° |
| 2026-04-21 13:43 | 21.76010 | 113.91464 | 14481 ft | 376 kts | 193° |
| 2026-04-21 13:44 | 21.73428 | 113.90968 | 14803 ft | 378 kts | 193° |
| 2026-04-21 13:44 | 21.70826 | 113.90469 | 15132 ft | 381 kts | 193° |
| 2026-04-21 13:44 | 21.68203 | 113.89966 | 15458 ft | 384 kts | 193° |
| 2026-04-21 13:44 | 21.65568 | 113.89461 | 15787 ft | 387 kts | 193° |
| 2026-04-21 13:45 | 21.62909 | 113.88952 | 16110 ft | 389 kts | 193° |
| 2026-04-21 13:45 | 21.60235 | 113.88439 | 16416 ft | 392 kts | 193° |
| 2026-04-21 13:45 | 21.57529 | 113.87921 | 16716 ft | 396 kts | 193° |
| 2026-04-21 13:45 | 21.54814 | 113.87401 | 17020 ft | 398 kts | 193° |
| 2026-04-21 13:46 | 21.52074 | 113.86877 | 17319 ft | 401 kts | 193° |
| 2026-04-21 13:46 | 21.49317 | 113.86350 | 17638 ft | 404 kts | 193° |
| 2026-04-21 13:46 | 21.46548 | 113.85821 | 17944 ft | 406 kts | 193° |
| 2026-04-21 13:46 | 21.43750 | 113.85286 | 18239 ft | 409 kts | 193° |
| 2026-04-21 13:47 | 21.40945 | 113.84751 | 18505 ft | 411 kts | 193° |
| 2026-04-21 13:47 | 21.38119 | 113.84211 | 18773 ft | 413 kts | 193° |
| 2026-04-21 13:47 | 21.35284 | 113.83671 | 19043 ft | 415 kts | 193° |
| 2026-04-21 13:47 | 21.32435 | 113.83128 | 19304 ft | 417 kts | 193° |
| 2026-04-21 13:48 | 21.29569 | 113.82581 | 19549 ft | 419 kts | 192° |
| 2026-04-21 13:48 | 21.26686 | 113.82032 | 19807 ft | 421 kts | 192° |
| 2026-04-21 13:48 | 21.23796 | 113.81481 | 20080 ft | 423 kts | 192° |
| 2026-04-21 13:48 | 21.20894 | 113.80929 | 20336 ft | 425 kts | 192° |
| 2026-04-21 13:49 | 21.17977 | 113.80373 | 20599 ft | 427 kts | 192° |
| 2026-04-21 13:49 | 21.15057 | 113.79757 | 20844 ft | 427 kts | 197° |
| 2026-04-21 13:49 | 21.12274 | 113.78674 | 21097 ft | 426 kts | 208° |
| 2026-04-21 13:49 | 21.09823 | 113.76988 | 21327 ft | 424 kts | 222° |
| 2026-04-21 13:50 | 21.07805 | 113.74648 | 21574 ft | 422 kts | 236° |
| 2026-04-21 13:50 | 21.06353 | 113.71980 | 21849 ft | 421 kts | 246° |
| 2026-04-21 13:50 | 21.05226 | 113.69092 | 22106 ft | 421 kts | 251° |
| 2026-04-21 13:50 | 21.04282 | 113.66117 | 22345 ft | 422 kts | 253° |
| 2026-04-21 13:51 | 21.03402 | 113.63108 | 22484 ft | 426 kts | 254° |
| 2026-04-21 13:51 | 21.02515 | 113.60060 | 22678 ft | 429 kts | 254° |
| 2026-04-21 13:51 | 21.01601 | 113.57014 | 22940 ft | 430 kts | 253° |
| 2026-04-21 13:51 | 21.00659 | 113.53976 | 23182 ft | 432 kts | 253° |
| 2026-04-21 13:52 | 20.99689 | 113.50927 | 23385 ft | 434 kts | 252° |
| 2026-04-21 13:52 | 20.98697 | 113.47855 | 23519 ft | 442 kts | 252° |
| 2026-04-21 13:52 | 20.97671 | 113.44700 | 23527 ft | 455 kts | 252° |
| 2026-04-21 13:52 | 20.96618 | 113.41476 | 23521 ft | 461 kts | 252° |
| 2026-04-21 13:53 | 20.95559 | 113.38239 | 23523 ft | 461 kts | 252° |
| 2026-04-21 13:53 | 20.94500 | 113.35001 | 23524 ft | 460 kts | 252° |
| 2026-04-21 13:53 | 20.93443 | 113.31769 | 23524 ft | 460 kts | 252° |
| 2026-04-21 13:53 | 20.92387 | 113.28539 | 23523 ft | 460 kts | 252° |
| 2026-04-21 13:54 | 20.91332 | 113.25312 | 23520 ft | 460 kts | 252° |
| 2026-04-21 13:54 | 20.90276 | 113.22081 | 23520 ft | 460 kts | 252° |
| 2026-04-21 13:54 | 20.89218 | 113.18848 | 23520 ft | 460 kts | 252° |
| 2026-04-21 13:54 | 20.88161 | 113.15617 | 23520 ft | 460 kts | 252° |
| 2026-04-21 13:55 | 20.87104 | 113.12389 | 23520 ft | 460 kts | 252° |
| 2026-04-21 13:55 | 20.86047 | 113.09163 | 23519 ft | 460 kts | 251° |
| 2026-04-21 13:55 | 20.84991 | 113.05944 | 23520 ft | 458 kts | 252° |
| 2026-04-21 13:55 | 20.83934 | 113.02725 | 23520 ft | 457 kts | 251° |
| 2026-04-21 13:56 | 20.82882 | 112.99522 | 23512 ft | 457 kts | 252° |
| 2026-04-21 13:56 | 20.81826 | 112.96311 | 23514 ft | 459 kts | 252° |
| 2026-04-21 13:56 | 20.80764 | 112.93081 | 23514 ft | 460 kts | 252° |
| 2026-04-21 13:56 | 20.79702 | 112.89857 | 23516 ft | 460 kts | 252° |
| 2026-04-21 13:57 | 20.78638 | 112.86628 | 23514 ft | 460 kts | 252° |
| 2026-04-21 13:57 | 20.77575 | 112.83403 | 23514 ft | 461 kts | 252° |
| 2026-04-21 13:57 | 20.76508 | 112.80168 | 23514 ft | 461 kts | 252° |
| 2026-04-21 13:57 | 20.75443 | 112.76942 | 23514 ft | 460 kts | 251° |
| 2026-04-21 13:58 | 20.74380 | 112.73725 | 23517 ft | 459 kts | 251° |
| 2026-04-21 13:58 | 20.73318 | 112.70513 | 23513 ft | 459 kts | 251° |
| 2026-04-21 13:58 | 20.72255 | 112.67298 | 23513 ft | 458 kts | 251° |
| 2026-04-21 13:58 | 20.71208 | 112.64136 | 23510 ft | 458 kts | 251° |
| 2026-04-21 13:59 | 20.70146 | 112.60930 | 23509 ft | 458 kts | 251° |
| 2026-04-21 13:59 | 20.69081 | 112.57719 | 23508 ft | 458 kts | 251° |
| 2026-04-21 13:59 | 20.68017 | 112.54512 | 23507 ft | 458 kts | 251° |
| 2026-04-21 13:59 | 20.66953 | 112.51305 | 23507 ft | 458 kts | 251° |
| 2026-04-21 14:00 | 20.65888 | 112.48101 | 23506 ft | 458 kts | 251° |
| 2026-04-21 14:00 | 20.64824 | 112.44897 | 23507 ft | 458 kts | 251° |
| 2026-04-21 14:00 | 20.63759 | 112.41697 | 23507 ft | 457 kts | 251° |
| 2026-04-21 14:00 | 20.62696 | 112.38502 | 23508 ft | 456 kts | 251° |
| 2026-04-21 14:01 | 20.61632 | 112.35311 | 23507 ft | 456 kts | 251° |
| 2026-04-21 14:01 | 20.60567 | 112.32117 | 23503 ft | 457 kts | 251° |
| 2026-04-21 14:01 | 20.59502 | 112.28922 | 23503 ft | 457 kts | 251° |
| 2026-04-21 14:01 | 20.58436 | 112.25729 | 23503 ft | 456 kts | 251° |
| 2026-04-21 14:02 | 20.57730 | 112.23618 | 23504 ft | 456 kts | 251° |
| 2026-04-21 14:02 | 20.56502 | 112.19285 | 23499 ft | 456 kts | 259° |
| 2026-04-21 14:02 | 20.56192 | 112.15934 | 23499 ft | 455 kts | 271° |
| 2026-04-21 14:03 | 20.57567 | 112.09402 | 23503 ft | 454 kts | 291° |
| 2026-04-21 14:03 | 20.58826 | 112.06315 | 23497 ft | 454 kts | 294° |
| 2026-04-21 14:03 | 20.60196 | 112.03275 | 23497 ft | 455 kts | 295° |
| 2026-04-21 14:03 | 20.61608 | 112.00259 | 23496 ft | 455 kts | 296° |
| 2026-04-21 14:04 | 20.63027 | 111.97244 | 23500 ft | 454 kts | 296° |
| 2026-04-21 14:04 | 20.64433 | 111.94225 | 23496 ft | 454 kts | 295° |
| 2026-04-21 14:04 | 20.65827 | 111.91195 | 23497 ft | 454 kts | 295° |
| 2026-04-21 14:04 | 20.67208 | 111.88161 | 23495 ft | 455 kts | 295° |
| 2026-04-21 14:05 | 20.68583 | 111.85120 | 23496 ft | 455 kts | 295° |
| 2026-04-21 14:05 | 20.69953 | 111.82077 | 23492 ft | 455 kts | 295° |
| 2026-04-21 14:05 | 20.71322 | 111.79030 | 23493 ft | 454 kts | 295° |
| 2026-04-21 14:05 | 20.72686 | 111.75991 | 23491 ft | 454 kts | 295° |
| 2026-04-21 14:06 | 20.74052 | 111.72950 | 23493 ft | 454 kts | 295° |
| 2026-04-21 14:06 | 20.75416 | 111.69911 | 23492 ft | 454 kts | 295° |
| 2026-04-21 14:06 | 20.76322 | 111.67892 | 23492 ft | 454 kts | 295° |
| 2026-04-21 14:06 | 20.78150 | 111.63818 | 23494 ft | 454 kts | 295° |
| 2026-04-21 14:07 | 20.79053 | 111.61807 | 23495 ft | 454 kts | 295° |
| 2026-04-21 14:07 | 20.80418 | 111.58762 | 23497 ft | 454 kts | 295° |
| 2026-04-21 14:07 | 20.82184 | 111.54712 | 23489 ft | 454 kts | 291° |
| 2026-04-21 14:07 | 20.82844 | 111.52549 | 23489 ft | 453 kts | 283° |
| 2026-04-21 14:08 | 20.83207 | 111.48082 | 23496 ft | 453 kts | 265° |
| 2026-04-21 14:08 | 20.82863 | 111.45883 | 23497 ft | 453 kts | 257° |
| 2026-04-21 14:08 | 20.82021 | 111.42637 | 23497 ft | 454 kts | 253° |
| 2026-04-21 14:08 | 20.80670 | 111.38448 | 23039 ft | 445 kts | 251° |
| 2026-04-21 14:09 | 20.79586 | 111.35347 | 22001 ft | 448 kts | 250° |
| 2026-04-21 14:09 | 20.78837 | 111.33239 | 21351 ft | 450 kts | 250° |
| 2026-04-21 14:09 | 20.77731 | 111.30116 | 20527 ft | 448 kts | 250° |
| 2026-04-21 14:09 | 20.76649 | 111.27015 | 19944 ft | 441 kts | 251° |
| 2026-04-21 14:10 | 20.75607 | 111.23985 | 19657 ft | 430 kts | 251° |
| 2026-04-21 14:10 | 20.74589 | 111.20986 | 19589 ft | 430 kts | 251° |
| 2026-04-21 14:10 | 20.73455 | 111.18032 | 19584 ft | 432 kts | 245° |
| 2026-04-21 14:10 | 20.71915 | 111.15281 | 19449 ft | 431 kts | 237° |
| 2026-04-21 14:11 | 20.70177 | 111.12671 | 19214 ft | 431 kts | 236° |
| 2026-04-21 14:11 | 20.68418 | 111.10131 | 18988 ft | 431 kts | 235° |
| 2026-04-21 14:11 | 20.66606 | 111.07540 | 18763 ft | 429 kts | 235° |
| 2026-04-21 14:11 | 20.64842 | 111.05030 | 18541 ft | 427 kts | 235° |
| 2026-04-21 14:12 | 20.63060 | 111.02496 | 18321 ft | 426 kts | 235° |
| 2026-04-21 14:12 | 20.61279 | 110.99969 | 18086 ft | 426 kts | 235° |
| 2026-04-21 14:12 | 20.59502 | 110.97451 | 17823 ft | 424 kts | 235° |
| 2026-04-21 14:12 | 20.57731 | 110.94944 | 17576 ft | 421 kts | 235° |
| 2026-04-21 14:13 | 20.55971 | 110.92453 | 17323 ft | 419 kts | 235° |
| 2026-04-21 14:13 | 20.54221 | 110.89977 | 17081 ft | 417 kts | 235° |
| 2026-04-21 14:13 | 20.52449 | 110.87533 | 16818 ft | 416 kts | 232° |
| 2026-04-21 14:13 | 20.50327 | 110.85442 | 16549 ft | 418 kts | 217° |
| 2026-04-21 14:14 | 20.47708 | 110.84081 | 16300 ft | 422 kts | 199° |
| 2026-04-21 14:14 | 20.44815 | 110.83540 | 16065 ft | 424 kts | 188° |
| 2026-04-21 14:14 | 20.41880 | 110.83307 | 15823 ft | 422 kts | 186° |
| 2026-04-21 14:14 | 20.38954 | 110.83103 | 15612 ft | 421 kts | 186° |
| 2026-04-21 14:15 | 20.36038 | 110.82893 | 15560 ft | 420 kts | 186° |
| 2026-04-21 14:15 | 20.33124 | 110.82676 | 15558 ft | 419 kts | 186° |
| 2026-04-21 14:15 | 20.30219 | 110.82457 | 15420 ft | 418 kts | 187° |
| 2026-04-21 14:15 | 20.27325 | 110.82234 | 15184 ft | 417 kts | 186° |
| 2026-04-21 14:16 | 20.24440 | 110.82009 | 14994 ft | 414 kts | 187° |
| 2026-04-21 14:16 | 20.21604 | 110.81514 | 14981 ft | 411 kts | 197° |
| 2026-04-21 14:16 | 20.18962 | 110.80416 | 14861 ft | 405 kts | 211° |
| 2026-04-21 14:16 | 20.16554 | 110.78873 | 14631 ft | 404 kts | 215° |
| 2026-04-21 14:17 | 20.14211 | 110.77235 | 14397 ft | 403 kts | 216° |
| 2026-04-21 14:17 | 20.11884 | 110.75582 | 14167 ft | 401 kts | 216° |
| 2026-04-21 14:17 | 20.09569 | 110.73932 | 13929 ft | 399 kts | 216° |
| 2026-04-21 14:17 | 20.07269 | 110.72290 | 13709 ft | 397 kts | 216° |
| 2026-04-21 14:18 | 20.04980 | 110.70655 | 13460 ft | 395 kts | 216° |
| 2026-04-21 14:18 | 20.02700 | 110.69026 | 13202 ft | 394 kts | 216° |
| 2026-04-21 14:18 | 20.00431 | 110.67405 | 12962 ft | 392 kts | 216° |
| 2026-04-21 14:18 | 19.98168 | 110.65790 | 12707 ft | 391 kts | 216° |
| 2026-04-21 14:19 | 19.95916 | 110.64182 | 12455 ft | 389 kts | 216° |
| 2026-04-21 14:19 | 19.93696 | 110.62599 | 11982 ft | 380 kts | 215° |
| 2026-04-21 14:19 | 19.91517 | 110.61045 | 11383 ft | 374 kts | 215° |
| 2026-04-21 14:19 | 19.89379 | 110.59521 | 10982 ft | 363 kts | 215° |
| 2026-04-21 14:20 | 19.87375 | 110.58012 | 10828 ft | 341 kts | 220° |
| 2026-04-21 14:20 | 19.85899 | 110.56218 | 10698 ft | 308 kts | 239° |
| 2026-04-21 14:20 | 19.85141 | 110.54211 | 10577 ft | 281 kts | 257° |
| 2026-04-21 14:20 | 19.84953 | 110.52194 | 10453 ft | 270 kts | 268° |
| 2026-04-21 14:21 | 19.84942 | 110.50210 | 10346 ft | 268 kts | 269° |
| 2026-04-21 14:21 | 19.84948 | 110.48239 | 10215 ft | 266 kts | 269° |
| 2026-04-21 14:21 | 19.84950 | 110.46276 | 10115 ft | 266 kts | 269° |
| 2026-04-21 14:21 | 19.84950 | 110.44313 | 9955 ft | 266 kts | 269° |
| 2026-04-21 14:22 | 19.84947 | 110.42298 | 9833 ft | 281 kts | 268° |
| 2026-04-21 14:22 | 19.84942 | 110.40214 | 9588 ft | 281 kts | 268° |
| 2026-04-21 14:22 | 19.84938 | 110.38152 | 9062 ft | 279 kts | 268° |
| 2026-04-21 14:22 | 19.84932 | 110.36070 | 8678 ft | 283 kts | 268° |
| 2026-04-21 14:23 | 19.84926 | 110.33987 | 8337 ft | 282 kts | 268° |
| 2026-04-21 14:23 | 19.84920 | 110.31904 | 8006 ft | 281 kts | 268° |
| 2026-04-21 14:23 | 19.84914 | 110.29838 | 7676 ft | 279 kts | 267° |
| 2026-04-21 14:23 | 19.84907 | 110.27781 | 7346 ft | 278 kts | 268° |
| 2026-04-21 14:24 | 19.84902 | 110.25783 | 7164 ft | 259 kts | 267° |
| 2026-04-21 14:24 | 19.84899 | 110.23950 | 7026 ft | 237 kts | 267° |
| 2026-04-21 14:24 | 19.84893 | 110.22242 | 6698 ft | 229 kts | 267° |
| 2026-04-21 14:24 | 19.84885 | 110.20542 | 6155 ft | 231 kts | 266° |
| 2026-04-21 14:25 | 19.84876 | 110.18840 | 5641 ft | 230 kts | 266° |
| 2026-04-21 14:25 | 19.85061 | 110.17163 | 5124 ft | 231 kts | 288° |
| 2026-04-21 14:25 | 19.85999 | 110.15781 | 4639 ft | 235 kts | 319° |
| 2026-04-21 14:25 | 19.87488 | 110.15095 | 4124 ft | 236 kts | 349° |
| 2026-04-21 14:26 | 19.89112 | 110.15199 | 3628 ft | 236 kts | 20° |
| 2026-04-21 14:26 | 19.90452 | 110.16153 | 3124 ft | 233 kts | 49° |
| 2026-04-21 14:26 | 19.91456 | 110.17500 | 2658 ft | 235 kts | 57° |
| 2026-04-21 14:26 | 19.92412 | 110.18932 | 2193 ft | 239 kts | 59° |
| 2026-04-21 14:27 | 19.93212 | 110.20446 | 1988 ft | 232 kts | 76° |
| 2026-04-21 14:27 | 19.93455 | 110.22101 | 1988 ft | 224 kts | 95° |
| 2026-04-21 14:27 | 19.93424 | 110.23748 | 1983 ft | 221 kts | 98° |
| 2026-04-21 14:27 | 19.93410 | 110.25367 | 1990 ft | 219 kts | 96° |
| 2026-04-21 14:28 | 19.93414 | 110.26988 | 1987 ft | 219 kts | 96° |
| 2026-04-21 14:28 | 19.93423 | 110.28607 | 1995 ft | 218 kts | 95° |
| 2026-04-21 14:28 | 19.93433 | 110.30209 | 1989 ft | 216 kts | 95° |
| 2026-04-21 14:28 | 19.93440 | 110.31808 | 1996 ft | 216 kts | 95° |
| 2026-04-21 14:29 | 19.93447 | 110.33358 | 1987 ft | 198 kts | 95° |
| 2026-04-21 14:29 | 19.93454 | 110.34741 | 1810 ft | 178 kts | 97° |
| 2026-04-21 14:29 | 19.93454 | 110.36011 | 1578 ft | 167 kts | 98° |
| 2026-04-21 14:29 | 19.93456 | 110.37199 | 1353 ft | 156 kts | 98° |
| 2026-04-21 14:30 | 19.93458 | 110.38314 | 1146 ft | 146 kts | 96° |
| 2026-04-21 14:30 | 19.93462 | 110.39360 | 964 ft | 138 kts | 96° |
| 2026-04-21 14:30 | 19.93464 | 110.40367 | 807 ft | 135 kts | 96° |
| 2026-04-21 14:30 | 19.93467 | 110.41367 | 639 ft | 135 kts | 94° |
| 2026-04-21 14:31 | 19.93483 | 110.42370 | 479 ft | 139 kts | 90° |
| 2026-04-21 14:31 | 19.93502 | 110.43390 | 296 ft | 137 kts | 94° |
| 2026-04-21 14:31 | 19.93488 | 110.44395 | 117 ft | 138 kts | 91° |
| 2026-04-21 14:31 | 19.93482 | 110.45309 | 89 ft | 92 kts | 91° |
| 2026-04-21 14:32 | 19.93480 | 110.45668 | 89 ft | 6 kts | 90° |
| 2026-04-21 14:32 | 19.93480 | 110.45768 | 88 ft | 30 kts | 90° |
| 2026-04-21 14:32 | 19.93499 | 110.45990 | 91 ft | 30 kts | 74° |
| 2026-04-21 14:32 | 19.93545 | 110.46129 | 88 ft | 9 kts | 66° |
| 2026-04-21 14:33 | 19.93579 | 110.46201 | 87 ft | 8 kts | 63° |
| 2026-04-21 14:33 | 19.93611 | 110.46268 | 88 ft | 12 kts | 63° |
| 2026-04-21 14:33 | 19.93671 | 110.46302 | 88 ft | 10 kts | 3° |
| 2026-04-21 14:33 | 19.93726 | 110.46276 | 88 ft | 9 kts | 300° |
| 2026-04-21 14:34 | 19.93736 | 110.46205 | 87 ft | 11 kts | 269° |
| 2026-04-21 14:34 | 19.93735 | 110.46115 | 87 ft | 14 kts | 269° |
| 2026-04-21 14:34 | 19.93736 | 110.46007 | 88 ft | 15 kts | 278° |
| 2026-04-21 14:34 | 19.93810 | 110.45973 | 88 ft | 13 kts | 359° |
| 2026-04-21 14:35 | 19.93880 | 110.45962 | 88 ft | 0 kts | 323° |
| 2026-04-21 14:35 | 19.93881 | 110.45961 | 88 ft | 3 kts | 320° |
| 2026-04-21 14:35 | 19.93879 | 110.45920 | 87 ft | 3 kts | 217° |
| 2026-04-21 14:35 | 19.93858 | 110.45916 | 89 ft | 4 kts | 188° |
| 2026-04-21 14:36 | 19.93829 | 110.45913 | 88 ft | 4 kts | 183° |